createdAt,value
2018-04-08T00:00:47.137Z,75.93
2018-04-08T00:01:47.364Z,76.59
2018-04-08T00:02:47.568Z,76.12
2018-04-08T00:03:47.785Z,76.31
2018-04-08T00:04:49.716Z,76.21
2018-04-08T00:05:50.715Z,76.31
2018-04-08T00:06:48.312Z,76.12
2018-04-08T00:07:48.525Z,75.74
2018-04-08T00:08:48.742Z,76.50
2018-04-08T00:09:49.980Z,76.03
2018-04-08T00:10:50.731Z,75.74
2018-04-08T00:11:49.363Z,75.93
2018-04-08T00:12:52.208Z,76.31
2018-04-08T00:13:51.224Z,76.31
2018-04-08T00:14:49.816Z,76.50
2018-04-08T00:15:50.037Z,76.50
2018-04-08T00:16:50.249Z,76.40
2018-04-08T00:17:50.459Z,76.50
2018-04-08T00:18:52.222Z,76.03
2018-04-08T00:19:54.713Z,76.59
2018-04-08T00:20:53.754Z,76.78
2018-04-08T00:21:57.087Z,76.97
2018-04-08T00:22:53.214Z,76.78
2018-04-08T00:23:52.439Z,77.55
2018-04-08T00:24:52.679Z,77.92
2018-04-08T00:25:59.712Z,77.55
2018-04-08T00:26:52.918Z,77.92
2018-04-08T00:27:52.126Z,78.21
2018-04-08T00:28:54.214Z,78.02
2018-04-08T00:29:54.212Z,79.06
2018-04-08T00:30:56.237Z,79.63
2018-04-08T00:31:52.881Z,79.25
2018-04-08T00:32:53.028Z,78.97
2018-04-08T00:33:53.239Z,79.54
2018-04-08T00:34:55.250Z,79.63
2018-04-08T00:35:53.669Z,79.44
2018-04-08T00:36:53.880Z,79.25
2018-04-08T00:37:55.709Z,78.69
2018-04-08T00:38:54.290Z,78.59
2018-04-08T00:39:54.555Z,78.50
2018-04-08T00:40:56.210Z,78.40
2018-04-08T00:41:54.917Z,78.78
2018-04-08T00:42:56.753Z,78.21
2018-04-08T00:43:59.215Z,78.45
2018-04-08T00:44:55.445Z,78.93
2018-04-08T00:45:57.214Z,79.31
2018-04-08T00:46:55.803Z,79.31
2018-04-08T00:47:57.712Z,79.31
2018-04-08T00:48:56.225Z,78.93
2018-04-08T00:49:56.367Z,79.03
2018-04-08T00:50:59.214Z,79.12
2018-04-08T00:52:03.216Z,79.22
2018-04-08T00:52:57.814Z,79.50
2018-04-08T00:53:58.718Z,79.31
2018-04-08T00:54:58.190Z,79.60
2018-04-08T00:55:57.401Z,79.60
2018-04-08T00:56:59.217Z,79.60
2018-04-08T00:57:57.798Z,80.26
2018-04-08T00:59:13.724Z,80.26
2018-04-08T00:59:58.171Z,79.60
2018-04-08T01:00:58.383Z,79.60
2018-04-08T01:02:00.234Z,78.93
2018-04-08T01:02:58.849Z,79.31
2018-04-08T01:03:58.943Z,78.93
2018-04-08T01:04:59.156Z,79.03
2018-04-08T01:05:59.370Z,79.03
2018-04-08T01:06:59.596Z,78.93
2018-04-08T01:07:59.866Z,78.93
2018-04-08T01:08:59.956Z,78.93
2018-04-08T01:10:11.751Z,79.50
2018-04-08T01:11:02.217Z,79.79
2018-04-08T01:12:00.559Z,79.69
2018-04-08T01:13:00.810Z,79.88
2018-04-08T01:14:00.999Z,79.88
2018-04-08T01:15:02.714Z,78.93
2018-04-08T01:16:04.213Z,79.50
2018-04-08T01:17:03.209Z,79.88
2018-04-08T01:18:03.207Z,80.16
2018-04-08T01:19:03.715Z,80.16
2018-04-08T01:20:03.714Z,79.69
2018-04-08T01:21:03.710Z,79.60
2018-04-08T01:22:02.161Z,79.69
2018-04-08T01:23:02.378Z,79.97
2018-04-08T01:24:04.231Z,79.97
2018-04-08T01:25:02.821Z,80.26
2018-04-08T01:26:05.727Z,79.97
2018-04-08T01:27:03.199Z,79.60
2018-04-08T01:28:05.215Z,80.35
2018-04-08T01:29:03.599Z,80.93
2018-04-08T01:30:03.783Z,81.02
2018-04-08T01:31:04.047Z,81.30
2018-04-08T01:32:05.207Z,81.12
2018-04-08T01:33:06.212Z,80.64
2018-04-08T01:34:04.547Z,80.74
2018-04-08T01:35:04.760Z,80.55
2018-04-08T01:36:07.727Z,80.74
2018-04-08T01:37:06.733Z,81.30
2018-04-08T01:38:07.231Z,81.21
2018-04-08T01:39:05.441Z,81.30
2018-04-08T01:40:05.651Z,81.02
2018-04-08T01:41:05.863Z,81.49
2018-04-08T01:42:07.732Z,81.93
2018-04-08T01:43:06.204Z,82.69
2018-04-08T01:44:09.218Z,82.31
2018-04-08T01:45:09.233Z,82.50
2018-04-08T01:46:06.751Z,82.59
2018-04-08T01:47:06.894Z,82.59
2018-04-08T01:48:07.026Z,82.59
2018-04-08T01:49:07.132Z,83.26
2018-04-08T01:50:08.348Z,82.88
2018-04-08T01:51:09.250Z,82.21
2018-04-08T01:52:07.711Z,82.69
2018-04-08T01:53:07.802Z,82.59
2018-04-08T01:54:11.719Z,81.74
2018-04-08T01:55:08.170Z,82.21
2018-04-08T01:56:08.406Z,83.07
2018-04-08T01:57:08.617Z,82.69
2018-04-08T01:58:09.306Z,83.07
2018-04-08T01:59:10.709Z,83.07
2018-04-08T02:00:09.133Z,83.26
2018-04-08T02:01:11.217Z,83.16
2018-04-08T02:02:09.427Z,83.73
2018-04-08T02:03:11.233Z,83.64
2018-04-08T02:04:09.817Z,83.07
2018-04-08T02:05:10.039Z,84.01
2018-04-08T02:06:12.209Z,83.83
2018-04-08T02:07:12.252Z,83.83
2018-04-08T02:08:13.245Z,83.92
2018-04-08T02:09:10.803Z,83.83
2018-04-08T02:10:11.007Z,84.11
2018-04-08T02:11:11.218Z,83.92
2018-04-08T02:12:11.465Z,83.54
2018-04-08T02:13:13.209Z,83.07
2018-04-08T02:14:11.693Z,83.45
2018-04-08T02:15:11.800Z,84.21
2018-04-08T02:16:19.740Z,84.21
2018-04-08T02:17:12.215Z,84.21
2018-04-08T02:18:12.432Z,84.49
2018-04-08T02:19:12.704Z,84.59
2018-04-08T02:20:13.810Z,84.74
2018-04-08T02:21:14.737Z,85.40
2018-04-08T02:22:16.765Z,85.78
2018-04-08T02:23:15.223Z,85.49
2018-04-08T02:24:15.221Z,85.44
2018-04-08T02:25:13.679Z,85.59
2018-04-08T02:26:16.729Z,84.74
2018-04-08T02:27:19.712Z,84.83
2018-04-08T02:28:14.287Z,85.21
2018-04-08T02:29:21.220Z,85.49
2018-04-08T02:30:14.678Z,85.11
2018-04-08T02:31:30.711Z,84.45
2018-04-08T02:32:15.052Z,84.78
2018-04-08T02:33:17.212Z,84.55
2018-04-08T02:34:17.225Z,84.17
2018-04-08T02:35:19.227Z,84.30
2018-04-08T02:36:15.686Z,84.40
2018-04-08T02:37:15.886Z,84.59
2018-04-08T02:38:17.751Z,84.83
2018-04-08T02:39:19.712Z,84.74
2018-04-08T02:40:16.421Z,85.11
2018-04-08T02:41:17.676Z,85.11
2018-04-08T02:42:18.732Z,85.21
2018-04-08T02:43:16.959Z,85.59
2018-04-08T02:44:22.711Z,85.59
2018-04-08T02:45:17.325Z,85.87
2018-04-08T02:46:17.433Z,85.49
2018-04-08T02:47:19.216Z,85.59
2018-04-08T02:48:17.805Z,85.68
2018-04-08T02:49:19.035Z,85.97
2018-04-08T02:50:18.273Z,86.44
2018-04-08T02:51:18.502Z,86.25
2018-04-08T02:52:22.255Z,85.97
2018-04-08T02:53:26.211Z,86.25
2018-04-08T02:54:18.869Z,86.25
2018-04-08T02:55:18.950Z,86.07
2018-04-08T02:56:20.663Z,85.78
2018-04-08T02:57:21.215Z,85.40
2018-04-08T02:58:21.231Z,85.49
2018-04-08T02:59:26.215Z,85.40
2018-04-08T03:00:21.215Z,85.49
2018-04-08T03:01:22.716Z,85.40
2018-04-08T03:02:23.719Z,85.68
2018-04-08T03:03:20.207Z,85.97
2018-04-08T03:04:22.218Z,85.87
2018-04-08T03:05:20.457Z,85.87
2018-04-08T03:06:22.218Z,86.16
2018-04-08T03:07:22.259Z,85.97
2018-04-08T03:08:21.841Z,86.35
2018-04-08T03:09:22.759Z,86.72
2018-04-08T03:10:21.116Z,86.54
2018-04-08T03:11:21.325Z,86.44
2018-04-08T03:12:24.034Z,87.01
2018-04-08T03:13:23.717Z,86.35
2018-04-08T03:14:21.940Z,86.44
2018-04-08T03:15:28.715Z,86.44
2018-04-08T03:16:22.384Z,86.35
2018-04-08T03:17:22.476Z,86.44
2018-04-08T03:18:22.726Z,86.16
2018-04-08T03:19:28.707Z,86.16
2018-04-08T03:20:23.729Z,86.44
2018-04-08T03:21:23.214Z,86.72
2018-04-08T03:22:23.463Z,86.16
2018-04-08T03:23:25.678Z,86.54
2018-04-08T03:24:23.780Z,86.35
2018-04-08T03:25:25.708Z,86.63
2018-04-08T03:26:25.189Z,86.44
2018-04-08T03:27:26.217Z,86.54
2018-04-08T03:28:24.563Z,86.54
2018-04-08T03:29:28.713Z,86.82
2018-04-08T03:30:25.919Z,86.63
2018-04-08T03:31:31.714Z,86.16
2018-04-08T03:32:27.219Z,86.16
2018-04-08T03:33:25.414Z,86.35
2018-04-08T03:34:27.242Z,85.59
2018-04-08T03:35:28.671Z,85.59
2018-04-08T03:36:27.051Z,85.97
2018-04-08T03:37:27.714Z,85.87
2018-04-08T03:38:28.222Z,86.07
2018-04-08T03:39:28.271Z,86.16
2018-04-08T03:40:28.213Z,86.44
2018-04-08T03:41:26.786Z,86.63
2018-04-08T03:42:28.709Z,86.63
2018-04-08T03:43:28.713Z,86.44
2018-04-08T03:44:29.211Z,86.25
2018-04-08T03:45:27.536Z,86.25
2018-04-08T03:46:27.782Z,86.82
2018-04-08T03:47:27.883Z,85.97
2018-04-08T03:48:28.134Z,86.44
2018-04-08T03:49:28.257Z,86.35
2018-04-08T03:50:28.484Z,86.16
2018-04-08T03:51:30.271Z,86.44
2018-04-08T03:52:29.750Z,86.16
2018-04-08T03:53:29.046Z,85.87
2018-04-08T03:54:29.150Z,85.87
2018-04-08T03:55:31.230Z,86.25
2018-04-08T03:56:29.594Z,86.44
2018-04-08T03:57:31.235Z,87.25
2018-04-08T03:58:29.823Z,87.63
2018-04-08T03:59:30.037Z,87.35
2018-04-08T04:00:32.229Z,87.25
2018-04-08T04:01:32.218Z,87.16
2018-04-08T04:02:34.257Z,87.45
2018-04-08T04:03:30.681Z,87.73
2018-04-08T04:04:32.727Z,88.39
2018-04-08T04:05:32.066Z,88.10
2018-04-08T04:06:31.281Z,88.01
2018-04-08T04:07:31.503Z,88.29
2018-04-08T04:08:36.217Z,87.92
2018-04-08T04:09:31.794Z,87.82
2018-04-08T04:10:35.726Z,87.73
2018-04-08T04:11:33.715Z,88.10
2018-04-08T04:12:35.226Z,87.92
2018-04-08T04:13:32.604Z,88.48
2018-04-08T04:14:33.718Z,88.58
2018-04-08T04:15:44.712Z,89.06
2018-04-08T04:16:33.049Z,89.15
2018-04-08T04:17:35.215Z,89.06
2018-04-08T04:18:40.221Z,88.87
2018-04-08T04:19:34.718Z,88.58
2018-04-08T04:20:33.844Z,89.25
2018-04-08T04:21:35.731Z,89.81
2018-04-08T04:22:34.404Z,89.43
2018-04-08T04:23:36.209Z,89.06
2018-04-08T04:24:36.215Z,89.34
2018-04-08T04:25:36.235Z,89.06
2018-04-08T04:26:36.212Z,89.06
2018-04-08T04:27:34.840Z,89.43
2018-04-08T04:28:35.948Z,89.43
2018-04-08T04:29:37.720Z,89.25
2018-04-08T04:30:39.238Z,88.77
2018-04-08T04:31:35.469Z,89.53
2018-04-08T04:32:38.198Z,89.34
2018-04-08T04:33:35.917Z,89.25
2018-04-08T04:34:37.713Z,89.91
2018-04-08T04:35:38.238Z,89.72
2018-04-08T04:36:36.457Z,89.72
2018-04-08T04:37:44.252Z,89.15
2018-04-08T04:38:43.724Z,89.25
2018-04-08T04:39:38.785Z,89.25
2018-04-08T04:40:38.713Z,89.81
2018-04-08T04:41:40.710Z,89.81
2018-04-08T04:42:41.000Z,89.81
2018-04-08T04:43:42.164Z,89.53
2018-04-08T04:44:38.641Z,89.34
2018-04-08T04:45:37.861Z,89.25
2018-04-08T04:46:39.767Z,88.87
2018-04-08T04:47:38.231Z,89.25
2018-04-08T04:48:38.476Z,89.72
2018-04-08T04:49:38.546Z,89.81
2018-04-08T04:50:41.723Z,90.48
2018-04-08T04:51:40.721Z,90.76
2018-04-08T04:52:39.717Z,90.38
2018-04-08T04:53:39.184Z,90.57
2018-04-08T04:54:41.250Z,90.19
2018-04-08T04:55:40.924Z,90.00
2018-04-08T04:56:42.674Z,89.81
2018-04-08T04:57:43.718Z,90.10
2018-04-08T04:58:41.748Z,89.81
2018-04-08T04:59:40.218Z,90.00
2018-04-08T05:00:46.264Z,89.43
2018-04-08T05:01:42.221Z,89.91
2018-04-08T05:02:42.240Z,90.48
2018-04-08T05:03:42.754Z,90.29
2018-04-08T05:04:41.054Z,90.48
2018-04-08T05:05:43.236Z,90.29
2018-04-08T05:06:43.227Z,90.19
2018-04-08T05:07:49.239Z,90.29
2018-04-08T05:08:41.835Z,89.91
2018-04-08T05:09:43.768Z,89.62
2018-04-08T05:10:43.717Z,89.25
2018-04-08T05:11:42.313Z,89.06
2018-04-08T05:12:44.228Z,89.34
2018-04-08T05:13:42.701Z,88.58
2018-04-08T05:14:44.738Z,88.87
2018-04-08T05:15:43.121Z,88.87
2018-04-08T05:16:44.774Z,89.25
2018-04-08T05:17:50.234Z,88.53
2018-04-08T05:18:49.557Z,87.96
2018-04-08T05:19:43.755Z,87.96
2018-04-08T05:20:46.738Z,88.24
2018-04-08T05:21:45.738Z,88.43
2018-04-08T05:22:45.716Z,88.15
2018-04-08T05:23:46.206Z,88.15
2018-04-08T05:24:47.223Z,86.39
2018-04-08T05:25:44.743Z,84.68
2018-04-08T05:26:55.734Z,84.40
2018-04-08T05:27:46.714Z,83.11
2018-04-08T05:28:45.286Z,82.92
2018-04-08T05:29:45.506Z,81.40
2018-04-08T05:30:47.212Z,80.02
2018-04-08T05:31:47.726Z,79.54
2018-04-08T05:32:46.079Z,77.92
2018-04-08T05:33:46.291Z,77.11
2018-04-08T05:34:46.490Z,76.54
2018-04-08T05:35:46.710Z,75.02
2018-04-08T05:36:46.924Z,74.39
2018-04-08T05:37:48.713Z,73.53
2018-04-08T05:38:47.299Z,73.15
2018-04-08T05:39:47.517Z,72.05
2018-04-08T05:40:47.722Z,71.82
2018-04-08T05:41:47.927Z,72.24
2018-04-08T05:42:48.136Z,72.71
2018-04-08T05:43:48.348Z,71.47
2018-04-08T05:44:48.555Z,71.95
2018-04-08T05:45:48.771Z,71.47
2018-04-08T05:46:49.017Z,71.13
2018-04-08T05:47:49.122Z,70.02
2018-04-08T05:48:49.352Z,68.30
2018-04-08T05:49:49.557Z,67.74
2018-04-08T05:50:49.761Z,67.55
2018-04-08T05:51:49.981Z,66.31
2018-04-08T05:52:50.187Z,66.15
2018-04-08T05:53:51.394Z,65.77
2018-04-08T05:54:50.614Z,64.47
2018-04-08T05:55:50.827Z,64.28
2018-04-08T05:56:51.039Z,63.04
2018-04-08T05:57:51.265Z,62.84
2018-04-08T05:58:51.465Z,62.84
2018-04-08T05:59:51.683Z,62.56
2018-04-08T06:00:51.898Z,63.13
2018-04-08T06:01:52.107Z,63.70
2018-04-08T06:02:52.334Z,62.11
2018-04-08T06:03:52.571Z,62.49
2018-04-08T06:04:52.778Z,61.73
2018-04-08T06:05:52.952Z,61.54
2018-04-08T06:06:53.166Z,62.08
2018-04-08T06:07:53.384Z,62.94
2018-04-08T06:08:53.590Z,63.07
2018-04-08T06:09:53.795Z,61.44
2018-04-08T06:10:54.018Z,60.71
2018-04-08T06:11:54.228Z,59.82
2018-04-08T06:12:54.447Z,60.21
2018-04-08T06:13:54.666Z,60.61
2018-04-08T06:14:54.886Z,59.95
2018-04-08T06:15:55.101Z,60.04
2018-04-08T06:16:55.319Z,60.24
2018-04-08T06:17:55.524Z,59.22
2018-04-08T06:18:55.742Z,57.50
2018-04-08T06:19:55.951Z,56.85
2018-04-08T06:20:56.160Z,56.67
2018-04-08T06:21:58.215Z,56.67
2018-04-08T06:22:56.556Z,56.45
2018-04-08T06:23:56.771Z,57.14
2018-04-08T06:24:57.016Z,56.60
2018-04-08T06:25:57.223Z,54.21
2018-04-08T06:26:59.231Z,53.56
2018-04-08T06:27:57.590Z,53.85
2018-04-08T06:28:57.809Z,53.37
2018-04-08T06:29:58.027Z,53.78
2018-04-08T06:30:58.238Z,53.97
2018-04-08T06:31:58.462Z,52.92
2018-04-08T06:33:00.224Z,51.77
2018-04-08T06:33:58.805Z,52.09
2018-04-08T06:34:59.028Z,51.51
2018-04-08T06:35:59.240Z,50.58
2018-04-08T06:36:59.498Z,50.48
2018-04-08T06:37:59.690Z,50.58
2018-04-08T06:39:01.723Z,49.84
2018-04-08T06:40:00.073Z,48.57
2018-04-08T06:41:00.297Z,50.38
2018-04-08T06:42:00.512Z,49.05
2018-04-08T06:43:00.741Z,48.78
2018-04-08T06:44:00.982Z,48.30
2018-04-08T06:45:02.718Z,48.80
2018-04-08T06:46:03.272Z,48.04
2018-04-08T06:47:01.444Z,47.87
2018-04-08T06:48:01.659Z,47.37
2018-04-08T06:49:03.738Z,47.20
2018-04-08T06:50:02.065Z,46.22
2018-04-08T06:51:04.688Z,46.12
2018-04-08T06:52:02.439Z,46.89
2018-04-08T06:53:02.536Z,47.30
2018-04-08T06:54:02.753Z,46.22
2018-04-08T06:55:02.996Z,46.91
2018-04-08T06:56:04.729Z,46.62
2018-04-08T06:57:11.241Z,46.53
2018-04-08T06:58:05.217Z,45.81
2018-04-08T06:59:03.692Z,44.37
2018-04-08T07:00:05.780Z,45.42
2018-04-08T07:01:05.722Z,45.59
2018-04-08T07:02:04.234Z,45.90
2018-04-08T07:03:08.240Z,45.54
2018-04-08T07:04:07.264Z,43.62
2018-04-08T07:05:06.722Z,43.14
2018-04-08T07:06:08.718Z,43.07
2018-04-08T07:07:05.181Z,42.68
2018-04-08T07:08:05.455Z,42.99
2018-04-08T07:09:08.263Z,42.99
2018-04-08T07:10:06.880Z,42.39
2018-04-08T07:11:08.759Z,42.70
2018-04-08T07:12:09.773Z,41.99
2018-04-08T07:13:08.262Z,42.76
2018-04-08T07:14:08.214Z,43.02
2018-04-08T07:15:08.737Z,43.38
2018-04-08T07:16:07.141Z,44.27
2018-04-08T07:17:10.239Z,44.32
2018-04-08T07:18:08.489Z,45.40
2018-04-08T07:19:15.223Z,46.24
2018-04-08T07:20:07.933Z,46.45
2018-04-08T07:21:09.716Z,45.59
2018-04-08T07:22:10.223Z,44.75
2018-04-08T07:23:10.254Z,44.17
2018-04-08T07:24:10.225Z,43.62
2018-04-08T07:25:08.808Z,43.43
2018-04-08T07:26:09.026Z,44.20
2018-04-08T07:27:09.250Z,42.70
2018-04-08T07:28:11.226Z,42.07
2018-04-08T07:29:09.568Z,41.13
2018-04-08T07:30:09.798Z,39.79
2018-04-08T07:31:10.016Z,38.35
2018-04-08T07:32:10.249Z,37.77
2018-04-08T07:33:10.489Z,39.11
2018-04-08T07:34:14.227Z,39.70
2018-04-08T07:35:10.951Z,38.35
2018-04-08T07:36:12.735Z,38.46
2018-04-08T07:37:15.228Z,38.14
2018-04-08T07:38:12.582Z,38.26
2018-04-08T07:39:15.735Z,39.03
2018-04-08T07:40:14.777Z,39.95
2018-04-08T07:41:26.751Z,40.64
2018-04-08T07:42:15.763Z,40.01
2018-04-08T07:43:12.376Z,38.46
2018-04-08T07:44:12.655Z,37.50
2018-04-08T07:45:15.720Z,37.77
2018-04-08T07:46:14.724Z,39.72
2018-04-08T07:47:13.191Z,37.71
2018-04-08T07:48:17.425Z,37.21
2018-04-08T07:49:13.658Z,36.48
2018-04-08T07:50:15.724Z,36.09
2018-04-08T07:51:14.077Z,35.52
2018-04-08T07:52:14.349Z,35.34
2018-04-08T07:53:17.217Z,35.53
2018-04-08T07:54:16.223Z,36.01
2018-04-08T07:55:15.815Z,36.57
2018-04-08T07:56:16.037Z,35.94
2018-04-08T07:57:17.250Z,34.76
2018-04-08T07:58:15.465Z,35.37
2018-04-08T07:59:17.261Z,35.58
2018-04-08T08:00:15.887Z,34.44
2018-04-08T08:01:16.103Z,34.41
2018-04-08T08:02:20.219Z,35.49
2018-04-08T08:03:16.576Z,34.77
2018-04-08T08:04:17.671Z,32.15
2018-04-08T08:05:18.798Z,31.28
2018-04-08T08:06:18.750Z,31.29
2018-04-08T08:07:17.356Z,30.44
2018-04-08T08:08:19.218Z,30.65
2018-04-08T08:09:19.768Z,29.48
2018-04-08T08:10:20.177Z,29.88
2018-04-08T08:11:19.742Z,29.36
2018-04-08T08:12:19.775Z,30.45
2018-04-08T08:13:22.258Z,29.27
2018-04-08T08:14:18.629Z,29.26
2018-04-08T08:15:20.726Z,31.32
2018-04-08T08:16:19.685Z,30.34
2018-04-08T08:17:19.350Z,29.40
2018-04-08T08:18:22.707Z,29.01
2018-04-08T08:19:22.040Z,29.22
2018-04-08T08:20:19.954Z,28.54
2018-04-08T08:21:21.189Z,27.96
2018-04-08T08:22:20.421Z,28.53
2018-04-08T08:23:21.705Z,28.80
2018-04-08T08:24:23.678Z,29.37
2018-04-08T08:25:21.058Z,29.87
2018-04-08T08:26:21.457Z,29.38
2018-04-08T08:27:21.489Z,29.16
2018-04-08T08:28:23.228Z,30.91
2018-04-08T08:29:23.719Z,30.82
2018-04-08T08:30:24.773Z,30.38
2018-04-08T08:31:22.286Z,28.17
2018-04-08T08:32:22.524Z,28.45
2018-04-08T08:33:24.729Z,28.07
2018-04-08T08:34:23.019Z,26.90
2018-04-08T08:35:26.197Z,26.79
2018-04-08T08:37:57.462Z,25.97
2018-04-08T08:38:56.412Z,25.40
2018-04-08T08:39:55.820Z,25.29
2018-04-08T08:40:57.466Z,25.89
2018-04-08T08:41:58.018Z,25.31
2018-04-08T08:42:56.254Z,25.60
2018-04-08T08:43:58.464Z,25.32
2018-04-08T08:45:05.425Z,24.15
2018-04-08T08:45:56.911Z,23.18
2018-04-08T08:46:58.141Z,23.39
2018-04-08T08:47:57.369Z,21.73
2018-04-08T08:49:01.465Z,22.02
2018-04-08T08:50:01.469Z,23.00
2018-04-08T08:50:59.964Z,24.05
2018-04-08T08:51:59.967Z,23.93
2018-04-08T08:53:01.964Z,24.22
2018-04-08T08:54:00.485Z,24.28
2018-04-08T08:55:00.556Z,24.39
2018-04-08T08:56:01.519Z,25.75
2018-04-08T08:57:01.272Z,24.38
2018-04-08T08:57:59.388Z,25.84
2018-04-08T08:59:03.513Z,25.35
2018-04-08T09:00:04.195Z,25.71
2018-04-08T09:01:07.469Z,26.97
2018-04-08T09:02:01.076Z,27.72
2018-04-08T09:03:04.016Z,27.43
2018-04-08T09:04:01.972Z,28.09
2018-04-08T09:05:23.498Z,28.47
2018-04-08T09:06:02.438Z,27.81
2018-04-08T09:07:04.468Z,27.61
2018-04-08T09:08:04.947Z,27.98
2018-04-08T09:09:23.425Z,28.13
2018-04-08T09:10:01.527Z,26.75
2018-04-08T09:11:01.762Z,27.93
2018-04-08T09:12:05.966Z,26.72
2018-04-08T09:13:10.007Z,24.71
2018-04-08T09:14:24.384Z,24.13
2018-04-08T09:15:03.593Z,23.17
2018-04-08T09:16:04.471Z,23.96
2018-04-08T09:17:02.991Z,24.49
2018-04-08T09:18:04.971Z,25.65
2018-04-08T09:19:06.993Z,26.08
2018-04-08T09:20:03.714Z,24.82
2018-04-08T09:21:11.464Z,23.27
2018-04-08T09:22:07.919Z,22.88
2018-04-08T09:23:06.919Z,22.79
2018-04-08T09:24:05.977Z,22.10
2018-04-08T09:25:11.497Z,22.90
2018-04-08T09:26:04.736Z,21.94
2018-04-08T09:27:05.381Z,22.23
2018-04-08T09:28:08.964Z,23.08
2018-04-08T09:29:05.391Z,23.95
2018-04-08T09:30:05.479Z,24.44
2018-04-08T09:31:09.491Z,24.61
2018-04-08T09:32:05.853Z,25.78
2018-04-08T09:33:08.018Z,24.71
2018-04-08T09:34:06.340Z,25.79
2018-04-08T09:35:18.469Z,23.46
2018-04-08T09:36:23.579Z,22.69
2018-04-08T09:37:08.998Z,22.81
2018-04-08T09:38:10.975Z,22.14
2018-04-08T09:39:09.000Z,20.50
2018-04-08T09:40:09.466Z,21.78
2018-04-08T09:41:11.468Z,21.70
2018-04-08T09:42:11.966Z,21.81
2018-04-08T09:43:09.978Z,19.18
2018-04-08T09:44:08.496Z,19.26
2018-04-08T09:45:10.462Z,19.07
2018-04-08T09:46:08.825Z,19.86
2018-04-08T09:47:10.970Z,19.55
2018-04-08T09:48:10.970Z,21.21
2018-04-08T09:49:10.995Z,21.31
2018-04-08T09:50:10.625Z,21.88
2018-04-08T09:51:09.835Z,23.10
2018-04-08T09:52:10.068Z,22.67
2018-04-08T09:53:32.998Z,26.65
2018-04-08T09:54:10.427Z,25.01
2018-04-08T09:55:12.494Z,24.66
2018-04-08T09:56:12.463Z,24.10
2018-04-08T09:57:12.965Z,22.84
2018-04-08T09:58:19.003Z,21.69
2018-04-08T09:59:13.932Z,21.12
2018-04-08T10:00:15.464Z,21.85
2018-04-08T10:01:11.816Z,21.78
2018-04-08T10:02:16.009Z,21.89
2018-04-08T10:03:12.265Z,20.53
2018-04-08T10:04:12.952Z,19.92
2018-04-08T10:05:14.471Z,21.22
2018-04-08T10:06:14.513Z,21.01
2018-04-08T10:07:16.482Z,19.84
2018-04-08T10:08:28.994Z,20.04
2018-04-08T10:09:13.240Z,20.34
2018-04-08T10:10:15.027Z,19.85
2018-04-08T10:11:15.470Z,19.37
2018-04-08T10:12:16.468Z,19.09
2018-04-08T10:13:15.964Z,18.99
2018-04-08T10:14:15.960Z,19.08
2018-04-08T10:15:16.472Z,19.18
2018-04-08T10:16:17.475Z,18.68
2018-04-08T10:17:16.980Z,18.79
2018-04-08T10:18:17.024Z,18.91
2018-04-08T10:19:15.515Z,19.10
2018-04-08T10:20:18.500Z,18.95
2018-04-08T10:21:17.477Z,20.33
2018-04-08T10:22:18.016Z,20.70
2018-04-08T10:23:17.987Z,21.85
2018-04-08T10:24:20.421Z,22.12
2018-04-08T10:25:16.801Z,23.89
2018-04-08T10:26:17.035Z,23.00
2018-04-08T10:27:38.284Z,23.10
2018-04-08T10:28:25.489Z,22.73
2018-04-08T10:29:17.760Z,22.94
2018-04-08T10:30:19.472Z,21.28
2018-04-08T10:31:18.090Z,21.29
2018-04-08T10:32:23.970Z,20.90
2018-04-08T10:33:18.452Z,20.32
2018-04-08T10:34:22.466Z,19.84
2018-04-08T10:35:20.532Z,20.83
2018-04-08T10:36:19.110Z,20.04
2018-04-08T10:37:19.359Z,21.29
2018-04-08T10:38:25.964Z,20.61
2018-04-08T10:39:21.506Z,20.50
2018-04-08T10:40:21.511Z,21.06
2018-04-08T10:41:20.115Z,23.18
2018-04-08T10:42:30.966Z,24.99
2018-04-08T10:43:23.480Z,24.61
2018-04-08T10:44:21.436Z,24.61
2018-04-08T10:45:20.974Z,24.26
2018-04-08T10:46:21.108Z,23.21
2018-04-08T10:47:22.231Z,23.11
2018-04-08T10:48:24.969Z,25.24
2018-04-08T10:49:21.687Z,24.58
2018-04-08T10:50:24.492Z,23.11
2018-04-08T10:51:22.018Z,23.19
2018-04-08T10:52:23.962Z,26.07
2018-04-08T10:53:23.967Z,26.30
2018-04-08T10:54:23.451Z,24.17
2018-04-08T10:55:25.465Z,24.29
2018-04-08T10:56:22.811Z,23.90
2018-04-08T10:57:26.974Z,21.88
2018-04-08T10:58:23.224Z,22.90
2018-04-08T10:59:38.958Z,25.40
2018-04-08T11:00:25.481Z,25.90
2018-04-08T11:01:26.462Z,24.84
2018-04-08T11:02:24.080Z,24.08
2018-04-08T11:03:24.297Z,23.02
2018-04-08T11:04:26.475Z,22.74
2018-04-08T11:05:24.700Z,22.48
2018-04-08T11:06:25.326Z,21.22
2018-04-08T11:07:26.199Z,20.64
2018-04-08T11:08:25.297Z,19.67
2018-04-08T11:09:31.463Z,19.10
2018-04-08T11:10:25.681Z,18.49
2018-04-08T11:11:27.460Z,19.27
2018-04-08T11:12:26.125Z,19.06
2018-04-08T11:13:28.597Z,21.00
2018-04-08T11:14:30.917Z,19.86
2018-04-08T11:15:28.518Z,19.68
2018-04-08T11:16:48.026Z,20.49
2018-04-08T11:17:27.185Z,19.32
2018-04-08T11:18:30.970Z,18.80
2018-04-08T11:19:27.450Z,21.37
2018-04-08T11:20:27.699Z,22.42
2018-04-08T11:21:27.919Z,25.59
2018-04-08T11:22:29.969Z,25.31
2018-04-08T11:23:28.242Z,24.61
2018-04-08T11:24:30.415Z,26.15
2018-04-08T11:25:30.460Z,25.47
2018-04-08T11:26:29.693Z,25.51
2018-04-08T11:27:28.927Z,24.37
2018-04-08T11:28:33.012Z,22.83
2018-04-08T11:29:30.967Z,22.14
2018-04-08T11:30:33.453Z,23.02
2018-04-08T11:31:29.877Z,21.56
2018-04-08T11:32:31.479Z,22.12
2018-04-08T11:33:31.457Z,22.52
2018-04-08T11:34:32.000Z,22.06
2018-04-08T11:35:31.447Z,20.80
2018-04-08T11:36:30.694Z,21.09
2018-04-08T11:37:30.935Z,21.11
2018-04-08T11:38:32.959Z,20.04
2018-04-08T11:39:31.356Z,20.14
2018-04-08T11:40:33.465Z,19.86
2018-04-08T11:41:33.758Z,19.16
2018-04-08T11:42:33.516Z,21.34
2018-04-08T11:43:34.030Z,18.79
2018-04-08T11:44:32.366Z,18.29
2018-04-08T11:45:32.600Z,17.62
2018-04-08T11:46:32.857Z,17.44
2018-04-08T11:47:35.963Z,17.83
2018-04-08T11:48:33.183Z,18.93
2018-04-08T11:49:35.922Z,18.04
2018-04-08T11:50:35.481Z,18.34
2018-04-08T11:51:35.874Z,17.94
2018-04-08T11:52:35.955Z,18.21
2018-04-08T11:53:35.963Z,18.98
2018-04-08T11:54:34.340Z,17.82
2018-04-08T11:55:35.971Z,17.65
2018-04-08T11:56:34.747Z,18.05
2018-04-08T11:57:36.106Z,18.23
2018-04-08T11:58:35.131Z,18.87
2018-04-08T11:59:36.964Z,20.69
2018-04-08T12:00:41.477Z,21.37
2018-04-08T12:01:35.878Z,22.06
2018-04-08T12:02:35.997Z,21.39
2018-04-08T12:03:37.252Z,20.48
2018-04-08T12:04:36.362Z,19.59
2018-04-08T12:05:36.584Z,18.05
2018-04-08T12:06:38.453Z,20.48
2018-04-08T12:07:38.964Z,19.41
2018-04-08T12:08:38.357Z,16.69
2018-04-08T12:09:39.464Z,18.15
2018-04-08T12:10:41.931Z,17.95
2018-04-08T12:11:41.450Z,19.60
2018-04-08T12:12:41.963Z,22.41
2018-04-08T12:13:39.821Z,22.88
2018-04-08T12:14:40.474Z,22.56
2018-04-08T12:15:40.459Z,24.57
2018-04-08T12:16:39.970Z,25.54
2018-04-08T12:17:40.919Z,26.67
2018-04-08T12:18:39.408Z,26.28
2018-04-08T12:19:40.419Z,26.95
2018-04-08T12:20:40.841Z,26.86
2018-04-08T12:21:42.940Z,26.49
2018-04-08T12:22:44.008Z,26.27
2018-04-08T12:23:42.942Z,25.79
2018-04-08T12:24:42.462Z,25.82
2018-04-08T12:25:42.460Z,25.65
2018-04-08T12:26:40.958Z,24.71
2018-04-08T12:27:48.961Z,24.15
2018-04-08T12:28:42.434Z,22.89
2018-04-08T12:29:41.679Z,21.72
2018-04-08T12:30:42.944Z,20.27
2018-04-08T12:31:43.996Z,21.53
2018-04-08T12:32:43.365Z,20.48
2018-04-08T12:33:43.601Z,18.84
2018-04-08T12:34:50.470Z,19.14
2018-04-08T12:35:47.928Z,21.01
2018-04-08T12:36:43.327Z,18.58
2018-04-08T12:37:43.499Z,18.37
2018-04-08T12:38:45.486Z,19.24
2018-04-08T12:39:45.957Z,19.13
2018-04-08T12:40:44.179Z,21.56
2018-04-08T12:41:50.456Z,20.00
2018-04-08T12:42:44.663Z,20.28
2018-04-08T12:43:46.981Z,20.18
2018-04-08T12:45:11.430Z,20.68
2018-04-08T12:45:46.298Z,19.10
2018-04-08T12:46:50.908Z,20.07
2018-04-08T12:47:47.491Z,20.17
2018-04-08T12:48:46.093Z,18.92
2018-04-08T12:49:47.956Z,18.85
2018-04-08T12:50:46.917Z,17.87
2018-04-08T12:51:48.003Z,18.07
2018-04-08T12:53:02.467Z,17.96
2018-04-08T12:53:46.795Z,18.73
2018-04-08T12:54:49.003Z,18.25
2018-04-08T12:55:48.957Z,19.03
2018-04-08T12:56:47.467Z,17.95